首页
METAR-TAF:

METAR-TAF

机场 :

RAF

Spadeadam, 英格兰

纬度: 55-03N, 经度: 002-33W, 海拔: 325米

当前天气观测

该预报发布于33分钟前的07:50 UTC
风速6节,风向
温度 15°C
湿度 63%
气压 1024 hPa
能见度10公里或以上

METAR: EGOM 080750Z AUTO 36006KT 9999 NCD 15/08 Q1024

时间: 09:23 (08:23 UTC)


TAF: 丢失

超过4000个机场的气象观测和天气预报(METAR&TAF报告)。

可查询的气象台以黄色和红色小点在地图上表示。

将鼠标移到小点上方,可查看气象台名称。

然后点击查看天气观测和预报。

如需切换地图:点击带黑十字的绿色按钮放大地图;点击带横线的绿色按钮缩小地图;或者点击绿色箭头查看邻近地区的地图。


METAR-TAF: